createdAt,value
2019-05-20T00:01:31.758Z,8.70
2019-05-20T00:04:22.139Z,7.87
2019-05-20T00:07:04.730Z,10.33
2019-05-20T00:09:55.118Z,8.70
2019-05-20T00:12:38.468Z,9.17
2019-05-20T00:15:28.851Z,9.53
2019-05-20T00:18:12.039Z,9.57
2019-05-20T00:21:02.345Z,9.10
2019-05-20T00:23:45.830Z,8.83
2019-05-20T00:26:36.146Z,8.50
2019-05-20T00:29:19.479Z,9.17
2019-05-20T00:32:09.786Z,9.50
2019-05-20T00:35:13.322Z,10.43
2019-05-20T00:38:03.686Z,9.23
2019-05-20T00:40:46.915Z,10.30
2019-05-20T00:47:05.302Z,9.53
2019-05-20T00:49:55.661Z,9.63
2019-05-20T00:52:46.006Z,8.87
2019-05-20T00:55:29.729Z,9.80
2019-05-20T01:01:21.904Z,11.87
2019-05-20T01:04:12.265Z,12.70
2019-05-20T01:06:55.838Z,12.13
2019-05-20T01:09:46.221Z,12.37
2019-05-20T01:12:29.340Z,12.03
2019-05-20T01:15:19.928Z,11.27
2019-05-20T01:18:03.379Z,12.33
2019-05-20T01:23:56.110Z,11.77
2019-05-20T01:26:46.506Z,12.90
2019-05-20T01:29:29.650Z,14.00
2019-05-20T01:32:20.048Z,13.87
2019-05-20T01:35:03.352Z,14.70
2019-05-20T01:37:53.744Z,14.07
2019-05-20T01:40:36.540Z,14.43
2019-05-20T01:43:26.965Z,15.10
2019-05-20T01:46:10.430Z,15.30
2019-05-20T01:49:00.849Z,16.30
2019-05-20T01:51:43.473Z,16.23
2019-05-20T01:54:33.902Z,16.17
2019-05-20T01:57:17.190Z,16.63
2019-05-20T02:00:28.094Z,16.83
2019-05-20T02:03:31.075Z,17.30
2019-05-20T02:06:22.795Z,16.67
2019-05-20T02:09:13.187Z,16.87
2019-05-20T02:11:56.502Z,17.20
2019-05-20T02:18:07.728Z,18.40
2019-05-20T02:20:51.118Z,19.40
2019-05-20T02:23:41.532Z,19.10
2019-05-20T02:26:24.350Z,19.87
2019-05-20T02:29:14.750Z,20.80
2019-05-20T02:31:57.538Z,20.20
2019-05-20T02:34:48.166Z,21.90
2019-05-20T02:37:30.763Z,23.00
2019-05-20T02:40:21.187Z,24.67
2019-05-20T02:43:03.756Z,25.33
2019-05-20T02:45:54.150Z,24.40
2019-05-20T02:48:38.518Z,27.33
2019-05-20T02:51:47.797Z,28.03
2019-05-20T02:54:31.403Z,27.60
2019-05-20T02:57:21.822Z,29.97
2019-05-20T03:00:05.221Z,31.63
2019-05-20T03:02:55.617Z,31.27
2019-05-20T03:05:39.070Z,32.33
2019-05-20T03:08:29.487Z,31.97
2019-05-20T03:11:13.039Z,35.03
2019-05-20T03:14:03.559Z,35.90
2019-05-20T03:16:47.042Z,37.83
2019-05-20T03:19:37.491Z,37.30
2019-05-20T03:22:20.805Z,39.23
2019-05-20T03:25:11.283Z,46.13
2019-05-20T03:27:54.522Z,51.00
2019-05-20T03:30:45.307Z,56.73
2019-05-20T03:33:28.226Z,49.10
2019-05-20T03:36:18.737Z,55.17
2019-05-20T03:39:01.801Z,57.10
2019-05-20T03:41:52.185Z,49.57
2019-05-20T03:44:35.513Z,52.50
2019-05-20T03:47:25.881Z,57.57
2019-05-20T03:50:09.204Z,53.10
2019-05-20T03:53:13.483Z,46.23
2019-05-20T03:56:06.450Z,50.37
2019-05-20T03:58:56.905Z,49.53
2019-05-20T04:01:40.753Z,50.60
2019-05-20T04:04:31.181Z,51.17
2019-05-20T04:07:14.406Z,56.27
2019-05-20T04:10:05.151Z,58.40
2019-05-20T04:12:48.017Z,56.40
2019-05-20T04:15:38.413Z,62.77
2019-05-20T04:18:21.458Z,63.37
2019-05-20T04:21:04.269Z,67.87
2019-05-20T04:23:54.716Z,69.57
2019-05-20T04:26:37.551Z,70.90
2019-05-20T04:29:28.034Z,73.30
2019-05-20T04:32:11.630Z,86.23
2019-05-20T04:35:19.829Z,84.60
2019-05-20T04:38:06.328Z,82.63
2019-05-20T04:40:56.710Z,78.57
2019-05-20T04:43:39.518Z,73.63
2019-05-20T04:46:29.941Z,72.07
2019-05-20T04:49:14.721Z,67.13
2019-05-20T04:52:05.156Z,67.30
2019-05-20T04:54:50.229Z,67.90
2019-05-20T04:57:40.768Z,71.03
2019-05-20T05:04:13.337Z,63.03
2019-05-20T05:06:56.853Z,73.80
2019-05-20T05:09:47.215Z,65.97
2019-05-20T05:12:34.135Z,72.50
2019-05-20T05:31:51.808Z,60.63
2019-05-20T05:44:57.435Z,58.57
2019-05-20T05:47:40.112Z,56.57
2019-05-20T05:53:48.778Z,55.67
2019-05-20T05:56:58.432Z,51.27
2019-05-20T05:59:41.310Z,51.33
2019-05-20T06:02:24.919Z,49.47
2019-05-20T06:05:15.411Z,48.10
2019-05-20T06:07:58.110Z,47.97
2019-05-20T06:10:48.491Z,47.90
2019-05-20T06:13:31.181Z,47.20
2019-05-20T06:16:36.079Z,49.87
2019-05-20T06:19:26.179Z,49.43
2019-05-20T06:22:16.639Z,47.23
2019-05-20T06:24:59.807Z,48.73
2019-05-20T06:27:50.187Z,49.03
2019-05-20T06:30:37.830Z,50.43
2019-05-20T06:33:31.704Z,48.20
2019-05-20T06:36:26.398Z,44.97
2019-05-20T06:40:02.913Z,46.73
2019-05-20T06:42:52.661Z,50.00
2019-05-20T06:45:43.065Z,47.80
2019-05-20T06:48:26.311Z,50.97
2019-05-20T06:51:16.696Z,47.77
2019-05-20T06:53:59.307Z,47.97
2019-05-20T06:56:49.799Z,44.97
2019-05-20T06:59:32.686Z,44.13
2019-05-20T07:02:15.565Z,42.40
2019-05-20T07:08:34.776Z,47.27
2019-05-20T07:11:25.198Z,45.73
2019-05-20T07:14:08.571Z,49.03
2019-05-20T07:16:59.013Z,54.67
2019-05-20T07:19:45.096Z,58.27
2019-05-20T07:23:02.737Z,56.40
2019-05-20T07:26:00.035Z,57.87
2019-05-20T07:28:50.480Z,54.53
2019-05-20T07:31:34.539Z,54.73
2019-05-20T07:34:24.962Z,57.97
2019-05-20T07:37:08.392Z,57.40
2019-05-20T07:39:58.830Z,56.57
2019-05-20T07:42:41.513Z,53.07
2019-05-20T07:45:57.032Z,52.43
2019-05-20T07:48:40.521Z,52.90
2019-05-20T07:55:00.476Z,54.90
2019-05-20T07:58:14.764Z,52.57
2019-05-20T08:00:57.463Z,47.23
2019-05-20T08:03:47.938Z,52.00
2019-05-20T08:06:31.190Z,51.87
2019-05-20T08:09:21.633Z,50.43
2019-05-20T08:12:04.843Z,48.63
2019-05-20T08:14:55.249Z,45.10
2019-05-20T08:17:38.129Z,43.83
2019-05-20T08:20:28.536Z,45.10
2019-05-20T08:23:11.661Z,43.37
2019-05-20T08:26:02.059Z,40.07
2019-05-20T08:28:44.716Z,36.20
2019-05-20T08:31:35.101Z,34.93
2019-05-20T08:34:18.224Z,39.13
2019-05-20T08:37:08.624Z,37.43
2019-05-20T08:39:51.321Z,46.90
2019-05-20T08:42:41.727Z,41.47
2019-05-20T08:45:25.921Z,39.53
2019-05-20T08:47:57.247Z,37.90
2019-05-20T08:50:47.606Z,37.67
2019-05-20T08:53:30.713Z,35.10
2019-05-20T08:56:21.114Z,35.20
2019-05-20T08:59:03.729Z,34.37
2019-05-20T09:01:46.606Z,36.33
2019-05-20T09:04:36.997Z,40.63
2019-05-20T09:07:19.613Z,42.63
2019-05-20T09:10:10.192Z,39.57
2019-05-20T09:12:53.098Z,36.03
2019-05-20T09:15:45.423Z,40.10
2019-05-20T09:18:48.393Z,38.30
2019-05-20T09:21:38.790Z,39.23
2019-05-20T09:24:23.638Z,38.17
2019-05-20T09:27:13.995Z,37.50
2019-05-20T09:29:57.528Z,37.13
2019-05-20T09:32:48.038Z,37.40
2019-05-20T09:35:31.170Z,37.33
2019-05-20T09:38:21.657Z,38.80
2019-05-20T09:41:04.904Z,38.93
2019-05-20T09:43:55.327Z,37.43
2019-05-20T09:46:38.065Z,38.97
2019-05-20T09:49:28.491Z,42.30
2019-05-20T09:52:11.998Z,42.37
2019-05-20T09:55:02.501Z,42.07
2019-05-20T09:57:45.331Z,39.17
2019-05-20T10:00:35.825Z,39.40
2019-05-20T10:03:18.400Z,36.70
2019-05-20T10:06:09.045Z,36.87
2019-05-20T10:09:13.036Z,39.27
2019-05-20T10:12:03.444Z,41.83
2019-05-20T10:14:46.168Z,40.50
2019-05-20T10:17:36.568Z,38.97
2019-05-20T10:20:19.761Z,37.10
2019-05-20T10:23:10.147Z,35.17
2019-05-20T10:25:52.811Z,35.67
2019-05-20T10:28:47.175Z,36.73
2019-05-20T10:31:47.298Z,35.50
2019-05-20T10:34:37.918Z,33.50
2019-05-20T10:37:20.602Z,31.17
2019-05-20T10:43:40.282Z,28.40
2019-05-20T10:46:30.649Z,33.07
2019-05-20T10:49:13.150Z,30.40
2019-05-20T10:52:05.364Z,30.50
2019-05-20T10:55:08.803Z,32.63
2019-05-20T10:57:59.196Z,30.57
2019-05-20T11:01:01.795Z,30.20
2019-05-20T11:03:54.601Z,29.77
2019-05-20T11:06:44.991Z,29.47
2019-05-20T11:09:28.302Z,30.57
2019-05-20T11:12:18.671Z,33.17
2019-05-20T11:15:02.565Z,30.07
2019-05-20T11:17:53.167Z,29.60
2019-05-20T11:20:35.908Z,28.03
2019-05-20T11:23:26.263Z,27.97
2019-05-20T11:26:11.184Z,29.17
2019-05-20T11:29:01.598Z,30.73
2019-05-20T11:32:10.492Z,29.13
2019-05-20T11:34:59.002Z,27.43
2019-05-20T11:37:43.063Z,28.33
2019-05-20T11:40:53.408Z,28.20
2019-05-20T11:43:46.424Z,28.67
2019-05-20T11:46:39.139Z,28.20
2019-05-20T11:49:22.457Z,28.17
2019-05-20T11:52:12.805Z,27.73
2019-05-20T11:54:56.204Z,26.47
2019-05-20T11:57:46.650Z,26.80
2019-05-20T12:00:30.155Z,30.40
2019-05-20T12:03:20.543Z,28.63
2019-05-20T12:06:04.318Z,26.93
2019-05-20T12:08:55.008Z,28.40
2019-05-20T12:11:38.175Z,29.90
2019-05-20T12:14:28.612Z,29.30
2019-05-20T12:17:12.181Z,30.10
2019-05-20T12:20:03.826Z,33.83
2019-05-20T12:23:07.357Z,26.60
2019-05-20T12:25:57.768Z,30.30
2019-05-20T12:28:40.763Z,26.93
2019-05-20T12:31:31.192Z,29.77
2019-05-20T12:34:14.151Z,33.13
2019-05-20T12:37:04.656Z,34.27
2019-05-20T12:40:06.421Z,30.07
2019-05-20T12:43:00.657Z,32.30
2019-05-20T12:45:51.067Z,27.77
2019-05-20T12:48:34.337Z,29.70
2019-05-20T12:51:24.790Z,31.27
2019-05-20T12:54:07.667Z,31.80
2019-05-20T12:56:58.141Z,30.80
2019-05-20T12:59:41.572Z,28.97
2019-05-20T13:02:31.960Z,32.57
2019-05-20T13:05:15.618Z,29.43
2019-05-20T13:08:06.048Z,32.27
2019-05-20T13:10:49.353Z,32.20
2019-05-20T13:13:39.703Z,33.23
2019-05-20T13:16:22.916Z,35.37
2019-05-20T13:19:13.347Z,33.27
2019-05-20T13:22:03.868Z,33.13
2019-05-20T13:24:46.838Z,35.63
2019-05-20T13:27:37.196Z,33.37
2019-05-20T13:30:21.001Z,32.70
2019-05-20T13:33:11.367Z,35.50
2019-05-20T13:36:01.759Z,36.37
2019-05-20T13:38:44.704Z,36.67
2019-05-20T13:41:35.117Z,41.50
2019-05-20T13:44:17.673Z,38.57
2019-05-20T13:47:08.058Z,39.70
2019-05-20T13:49:50.838Z,39.40
2019-05-20T13:52:41.241Z,38.73
2019-05-20T13:55:24.031Z,40.53
2019-05-20T13:58:14.386Z,40.90
2019-05-20T14:00:57.184Z,41.13
2019-05-20T14:03:47.574Z,42.17
2019-05-20T14:06:30.947Z,39.20
2019-05-20T14:09:21.340Z,42.83
2019-05-20T14:12:24.630Z,39.47
2019-05-20T14:15:15.234Z,40.33
2019-05-20T14:17:58.535Z,40.53
2019-05-20T14:20:48.859Z,38.53
2019-05-20T14:23:31.905Z,39.97
2019-05-20T14:29:28.963Z,37.53
2019-05-20T14:32:19.340Z,35.70
2019-05-20T14:35:02.878Z,36.40
2019-05-20T14:37:53.272Z,38.10
2019-05-20T14:40:35.882Z,39.00
2019-05-20T14:43:26.362Z,39.90
2019-05-20T14:46:09.948Z,35.97
2019-05-20T14:49:02.530Z,36.20
2019-05-20T14:52:05.323Z,34.20
2019-05-20T14:54:55.878Z,36.63
2019-05-20T14:57:38.571Z,34.70
2019-05-20T15:00:28.948Z,31.73
2019-05-20T15:03:12.245Z,31.77
2019-05-20T15:06:02.665Z,33.67
2019-05-20T15:08:45.412Z,31.40
2019-05-20T15:11:38.569Z,34.10
2019-05-20T15:14:42.513Z,35.33
2019-05-20T15:17:32.429Z,32.50
2019-05-20T15:20:15.283Z,34.70
2019-05-20T15:23:05.644Z,32.13
2019-05-20T15:25:48.736Z,32.83
2019-05-20T15:28:39.158Z,34.33
2019-05-20T15:31:22.467Z,32.77
2019-05-20T15:33:53.845Z,31.37
2019-05-20T15:36:44.351Z,33.33
2019-05-20T15:39:34.761Z,32.37
2019-05-20T15:42:17.325Z,29.27
2019-05-20T15:48:37.410Z,28.80
2019-05-20T15:51:27.814Z,31.53
2019-05-20T15:54:18.235Z,27.17
2019-05-20T15:57:01.337Z,26.63
2019-05-20T15:59:51.727Z,28.23
2019-05-20T16:02:34.574Z,27.50
2019-05-20T16:05:25.024Z,29.93
2019-05-20T16:08:08.497Z,29.53
2019-05-20T16:10:58.910Z,28.90
2019-05-20T16:13:41.423Z,27.30
2019-05-20T16:16:31.829Z,28.67
2019-05-20T16:19:14.428Z,27.37
2019-05-20T16:22:04.840Z,26.33
2019-05-20T16:24:47.839Z,28.70
2019-05-20T16:27:38.225Z,31.40
2019-05-20T16:30:22.727Z,30.07
2019-05-20T16:33:05.606Z,28.93
2019-05-20T16:35:56.830Z,30.03
2019-05-20T16:38:39.992Z,29.20
2019-05-20T16:41:31.926Z,29.63
2019-05-20T16:44:14.604Z,30.23
2019-05-20T16:47:05.086Z,29.43
2019-05-20T16:49:48.298Z,29.90
2019-05-20T16:52:38.694Z,31.67
2019-05-20T16:55:22.035Z,30.13
2019-05-20T16:58:13.250Z,30.73
2019-05-20T17:00:56.192Z,29.57
2019-05-20T17:03:46.612Z,31.27
2019-05-20T17:06:29.932Z,29.37
2019-05-20T17:09:20.270Z,32.47
2019-05-20T17:12:03.144Z,28.97
2019-05-20T17:14:53.472Z,32.33
2019-05-20T17:17:36.744Z,29.23
2019-05-20T17:20:27.160Z,28.43
2019-05-20T17:23:10.247Z,31.67
2019-05-20T17:26:00.644Z,28.67
2019-05-20T17:28:44.071Z,27.90
2019-05-20T17:31:34.550Z,31.60
2019-05-20T17:34:19.651Z,32.40
2019-05-20T17:37:22.439Z,33.67
2019-05-20T17:40:15.205Z,30.83
2019-05-20T17:43:05.636Z,33.03
2019-05-20T17:45:48.878Z,33.83
2019-05-20T17:48:39.217Z,33.30
2019-05-20T17:51:22.547Z,35.47
2019-05-20T17:54:05.638Z,35.00
2019-05-20T17:56:56.031Z,34.00
2019-05-20T17:59:39.292Z,32.83
2019-05-20T18:02:29.707Z,33.00
2019-05-20T18:05:14.777Z,36.07
2019-05-20T18:08:04.867Z,34.73
2019-05-20T18:10:47.831Z,35.87
2019-05-20T18:13:38.341Z,31.67
2019-05-20T18:16:21.942Z,31.70
2019-05-20T18:19:12.419Z,35.57
2019-05-20T18:21:55.121Z,35.30
2019-05-20T18:24:45.579Z,39.47
2019-05-20T18:27:28.373Z,37.10
2019-05-20T18:33:54.663Z,35.60
2019-05-20T18:36:37.654Z,35.13
2019-05-20T18:39:20.284Z,36.90
2019-05-20T18:42:10.699Z,37.77
2019-05-20T18:44:53.869Z,35.23
2019-05-20T18:47:44.329Z,36.53
2019-05-20T18:50:27.939Z,31.97
2019-05-20T18:53:18.385Z,33.27
2019-05-20T18:56:01.750Z,33.97
2019-05-20T18:58:52.304Z,31.30
2019-05-20T19:01:55.752Z,30.43
2019-05-20T19:04:47.176Z,32.93
2019-05-20T19:07:37.599Z,33.73
2019-05-20T19:10:20.554Z,29.03
2019-05-20T19:13:10.931Z,36.83
2019-05-20T19:15:53.657Z,30.50
2019-05-20T19:18:44.098Z,30.07
2019-05-20T19:21:27.151Z,29.40
2019-05-20T19:24:17.704Z,28.23
2019-05-20T19:27:02.475Z,27.37
2019-05-20T19:29:52.868Z,26.47
2019-05-20T19:32:35.796Z,27.03
2019-05-20T19:35:26.191Z,23.93
2019-05-20T19:38:09.353Z,25.00
2019-05-20T19:40:59.725Z,24.63
2019-05-20T19:43:42.986Z,24.13
2019-05-20T19:46:33.359Z,23.27
2019-05-20T19:49:16.012Z,22.13
2019-05-20T19:52:06.377Z,22.10
2019-05-20T19:54:49.365Z,21.33
2019-05-20T19:57:39.830Z,23.80
2019-05-20T20:00:22.650Z,22.97
2019-05-20T20:03:13.134Z,22.10
2019-05-20T20:05:56.483Z,22.37
2019-05-20T20:08:46.958Z,24.37
2019-05-20T20:11:30.555Z,23.07
2019-05-20T20:14:20.981Z,23.87
2019-05-20T20:17:04.131Z,21.97
2019-05-20T20:19:58.103Z,23.07
2019-05-20T20:22:59.915Z,24.40
2019-05-20T20:25:50.520Z,26.43
2019-05-20T20:28:33.974Z,26.47
2019-05-20T20:31:24.378Z,24.90
2019-05-20T20:34:07.124Z,27.23
2019-05-20T20:36:50.185Z,24.77
2019-05-20T20:39:40.658Z,25.57
2019-05-20T20:42:23.849Z,26.03
2019-05-20T20:45:14.938Z,26.70
2019-05-20T20:47:58.017Z,24.40
2019-05-20T20:53:57.311Z,28.90
2019-05-20T20:56:47.732Z,26.43
2019-05-20T20:59:31.186Z,25.13
2019-05-20T21:02:21.581Z,27.03
2019-05-20T21:08:27.736Z,33.20
2019-05-20T21:11:10.699Z,32.27
2019-05-20T21:14:01.121Z,32.47
2019-05-20T21:16:43.928Z,32.90
2019-05-20T21:19:34.375Z,33.97
2019-05-20T21:22:16.976Z,33.87
2019-05-20T21:25:07.597Z,34.00
2019-05-20T21:27:50.134Z,34.63
2019-05-20T21:30:40.592Z,34.07
2019-05-20T21:33:23.755Z,35.73
2019-05-20T21:36:14.221Z,38.90
2019-05-20T21:38:57.128Z,42.07
2019-05-20T21:41:47.576Z,43.33
2019-05-20T21:44:30.690Z,43.83
2019-05-20T21:47:21.214Z,45.13
2019-05-20T21:50:04.483Z,52.03
2019-05-20T21:52:54.934Z,45.27
2019-05-20T21:55:38.776Z,46.63
2019-05-20T21:58:29.263Z,46.27
2019-05-20T22:01:12.861Z,48.47
2019-05-20T22:04:03.334Z,55.17
2019-05-20T22:06:53.164Z,49.27
2019-05-20T22:09:31.303Z,51.93
2019-05-20T22:12:21.719Z,48.00
2019-05-20T22:15:12.526Z,51.13
2019-05-20T22:18:02.975Z,48.93
2019-05-20T22:20:46.223Z,49.27
2019-05-20T22:26:43.235Z,41.67
2019-05-20T22:29:33.591Z,49.07
2019-05-20T22:32:16.612Z,48.17
2019-05-20T22:34:59.839Z,44.87
2019-05-20T22:37:50.353Z,44.83
2019-05-20T22:40:33.762Z,43.87
2019-05-20T22:43:25.159Z,45.57
2019-05-20T22:46:08.485Z,44.17
2019-05-20T22:48:58.970Z,45.53
2019-05-20T22:51:42.003Z,42.73
2019-05-20T22:54:32.443Z,40.97
2019-05-20T22:57:15.100Z,39.90
2019-05-20T23:00:05.541Z,41.33
2019-05-20T23:02:48.778Z,37.70
2019-05-20T23:05:39.128Z,39.83
2019-05-20T23:08:22.874Z,39.53
2019-05-20T23:11:13.203Z,37.77
2019-05-20T23:13:56.035Z,37.90
2019-05-20T23:16:46.394Z,34.60
2019-05-20T23:19:29.455Z,33.90
2019-05-20T23:22:19.896Z,35.50
2019-05-20T23:25:02.487Z,37.80
2019-05-20T23:27:52.920Z,36.83
2019-05-20T23:30:43.360Z,37.87
2019-05-20T23:33:26.653Z,34.20
2019-05-20T23:36:09.387Z,30.00
2019-05-20T23:39:19.706Z,29.57
2019-05-20T23:42:23.121Z,28.57
2019-05-20T23:45:13.851Z,25.13
2019-05-20T23:47:56.873Z,25.03
2019-05-20T23:50:47.309Z,22.63
2019-05-20T23:53:30.224Z,19.87
2019-05-20T23:56:20.662Z,19.90
2019-05-20T23:59:03.770Z,21.10
